createdAt,value
2023-07-25T00:00:36.623Z,9.75
2023-07-25T00:03:39.229Z,10.60
2023-07-25T00:06:42.052Z,10.85
2023-07-25T00:09:44.831Z,10.13
2023-07-25T00:12:53.948Z,9.83
2023-07-25T00:15:57.142Z,10.32
2023-07-25T00:18:59.953Z,9.52
2023-07-25T00:22:02.881Z,11.27
2023-07-25T00:25:06.056Z,10.17
2023-07-25T00:28:08.839Z,10.47
2023-07-25T00:31:11.576Z,10.85
2023-07-25T00:34:14.067Z,11.15
2023-07-25T00:37:16.668Z,10.68
2023-07-25T00:40:19.359Z,10.80
2023-07-25T00:43:22.285Z,10.70
2023-07-25T00:46:25.296Z,11.07
2023-07-25T00:49:28.038Z,10.70
2023-07-25T00:52:31.493Z,10.52
2023-07-25T00:55:34.542Z,10.53
2023-07-25T00:58:37.277Z,10.43
2023-07-25T01:01:40.132Z,10.05
2023-07-25T01:04:43.277Z,9.65
2023-07-25T01:07:45.805Z,10.10
2023-07-25T01:10:48.360Z,9.70
2023-07-25T01:13:51.894Z,9.63
2023-07-25T01:16:54.882Z,9.15
2023-07-25T01:20:01.190Z,8.77
2023-07-25T01:23:07.191Z,9.27
2023-07-25T01:26:11.377Z,8.90
2023-07-25T01:29:14.259Z,8.40
2023-07-25T01:32:17.454Z,8.57
2023-07-25T01:35:20.734Z,9.10
2023-07-25T01:38:24.608Z,8.70
2023-07-25T01:41:27.204Z,8.70
2023-07-25T01:44:29.939Z,8.30
2023-07-25T01:47:33.243Z,8.57
2023-07-25T01:50:36.027Z,9.30
2023-07-25T01:53:38.974Z,8.30
2023-07-25T01:56:41.847Z,8.43
2023-07-25T01:59:44.378Z,8.33
2023-07-25T02:02:47.173Z,8.35
2023-07-25T02:05:51.702Z,7.93
2023-07-25T02:08:54.253Z,8.45
2023-07-25T02:11:56.830Z,8.43
2023-07-25T02:14:59.818Z,8.23
2023-07-25T02:18:03.619Z,7.82
2023-07-25T02:21:06.853Z,7.78
2023-07-25T02:24:09.860Z,7.78
2023-07-25T02:27:14.151Z,8.10
2023-07-25T02:30:19.439Z,7.77
2023-07-25T02:33:22.151Z,8.10
2023-07-25T02:36:25.103Z,8.07
2023-07-25T02:39:27.706Z,7.68
2023-07-25T02:42:30.288Z,7.67
2023-07-25T02:45:32.912Z,7.50
2023-07-25T02:48:36.230Z,7.50
2023-07-25T02:51:38.853Z,7.75
2023-07-25T02:54:41.592Z,7.53
2023-07-25T02:57:44.151Z,7.10
2023-07-25T03:00:46.663Z,7.10
2023-07-25T03:03:49.420Z,7.50
2023-07-25T03:06:55.957Z,8.13
2023-07-25T03:10:01.817Z,7.05
2023-07-25T03:13:04.314Z,7.67
2023-07-25T03:16:06.780Z,7.83
2023-07-25T03:19:09.524Z,6.80
2023-07-25T03:22:12.187Z,7.30
2023-07-25T03:25:14.706Z,7.20
2023-07-25T03:28:17.418Z,6.80
2023-07-25T03:31:20.038Z,6.37
2023-07-25T03:34:22.609Z,6.70
2023-07-25T03:37:25.141Z,7.30
2023-07-25T03:40:31.071Z,6.47
2023-07-25T03:43:33.612Z,6.50
2023-07-25T03:46:36.074Z,7.83
2023-07-25T03:49:38.732Z,7.95
2023-07-25T03:52:41.407Z,6.72
2023-07-25T03:55:44.244Z,7.47
2023-07-25T03:58:46.874Z,7.20
2023-07-25T04:01:49.511Z,6.47
2023-07-25T04:04:52.471Z,7.97
2023-07-25T04:07:57.853Z,7.60
2023-07-25T04:11:00.622Z,7.57
2023-07-25T04:14:03.861Z,8.10
2023-07-25T04:17:09.280Z,8.00
2023-07-25T04:20:12.398Z,8.30
2023-07-25T04:23:16.212Z,7.90
2023-07-25T04:26:19.143Z,8.60
2023-07-25T04:29:21.578Z,8.23
2023-07-25T04:32:33.093Z,9.10
2023-07-25T04:35:36.151Z,8.88
2023-07-25T04:38:38.760Z,8.90
2023-07-25T04:41:41.252Z,9.13
2023-07-25T04:44:44.829Z,8.77
2023-07-25T04:47:50.844Z,9.87
2023-07-25T04:50:55.310Z,9.93
2023-07-25T04:53:58.171Z,9.68
2023-07-25T04:57:00.613Z,9.73
2023-07-25T05:00:03.702Z,10.37
2023-07-25T05:03:06.331Z,9.83
2023-07-25T05:06:09.172Z,9.02
2023-07-25T05:09:12.205Z,9.30
2023-07-25T05:12:15.107Z,9.50
2023-07-25T05:15:17.918Z,8.83
2023-07-25T05:18:21.382Z,9.03
2023-07-25T05:21:24.403Z,9.68
2023-07-25T05:24:27.340Z,9.63
2023-07-25T05:27:32.819Z,9.85
2023-07-25T05:30:35.358Z,9.57
2023-07-25T05:33:37.833Z,9.73
2023-07-25T05:36:40.427Z,9.35
2023-07-25T05:39:42.832Z,9.48
2023-07-25T05:42:45.331Z,9.43
2023-07-25T05:45:47.920Z,9.33
2023-07-25T05:48:50.566Z,8.30
2023-07-25T05:51:55.041Z,8.63
2023-07-25T05:54:57.535Z,7.85
2023-07-25T05:58:00.005Z,8.18
2023-07-25T06:01:02.602Z,8.40
2023-07-25T06:04:05.272Z,8.30
2023-07-25T06:07:07.765Z,8.20
2023-07-25T06:10:10.461Z,7.43
2023-07-25T06:13:13.027Z,8.45
2023-07-25T06:16:15.538Z,7.80
2023-07-25T06:19:18.845Z,8.30
2023-07-25T06:22:21.279Z,8.88
2023-07-25T06:25:23.783Z,8.25
2023-07-25T06:28:26.209Z,7.53
2023-07-25T06:31:28.741Z,7.70
2023-07-25T06:34:31.290Z,7.77
2023-07-25T06:37:34.595Z,16.80
2023-07-25T06:40:37.134Z,7.47
2023-07-25T06:43:39.575Z,8.40
2023-07-25T06:46:42.208Z,7.80
2023-07-25T06:49:44.671Z,7.77
2023-07-25T06:52:47.423Z,7.78
2023-07-25T06:55:49.868Z,8.68
2023-07-25T06:58:52.361Z,7.47
2023-07-25T07:01:54.924Z,8.10
2023-07-25T07:04:57.412Z,7.97
2023-07-25T07:08:00.734Z,8.77
2023-07-25T07:11:03.223Z,7.40
2023-07-25T07:14:05.775Z,8.73
2023-07-25T07:17:08.421Z,8.20
2023-07-25T07:20:12.179Z,8.13
2023-07-25T07:23:14.759Z,8.90
2023-07-25T07:26:17.349Z,15.88
2023-07-25T07:29:19.848Z,8.63
2023-07-25T07:32:22.577Z,8.53
2023-07-25T07:35:25.360Z,8.40
2023-07-25T07:38:28.000Z,8.90
2023-07-25T07:41:30.719Z,9.25
2023-07-25T07:44:33.575Z,7.97
2023-07-25T07:47:36.107Z,9.43
2023-07-25T07:50:38.614Z,9.13
2023-07-25T07:53:41.301Z,7.90
2023-07-25T07:56:43.770Z,8.68
2023-07-25T07:59:46.741Z,8.95
2023-07-25T08:02:49.326Z,8.87
2023-07-25T08:05:58.307Z,9.00
2023-07-25T08:09:00.985Z,8.75
2023-07-25T08:12:04.792Z,8.43
2023-07-25T08:15:08.110Z,8.07
2023-07-25T08:18:10.582Z,7.97
2023-07-25T08:21:13.106Z,8.20
2023-07-25T08:24:15.730Z,8.65
2023-07-25T08:27:18.148Z,8.18
2023-07-25T08:30:20.652Z,7.50
2023-07-25T08:33:23.377Z,7.83
2023-07-25T08:36:25.845Z,7.43
2023-07-25T08:39:28.330Z,8.20
2023-07-25T08:42:32.980Z,8.20
2023-07-25T08:45:35.512Z,8.23
2023-07-25T08:48:39.638Z,7.97
2023-07-25T08:51:46.074Z,8.40
2023-07-25T08:54:50.403Z,8.20
2023-07-25T08:57:53.584Z,8.43
2023-07-25T09:00:56.262Z,8.30
2023-07-25T09:04:00.423Z,8.10
2023-07-25T09:07:03.529Z,9.20
2023-07-25T09:10:06.729Z,7.80
2023-07-25T09:13:09.304Z,7.80
2023-07-25T09:16:13.980Z,6.97
2023-07-25T09:19:18.295Z,8.27
2023-07-25T09:22:31.352Z,7.50
2023-07-25T09:25:34.833Z,7.60
2023-07-25T09:28:48.855Z,7.47
2023-07-25T09:31:51.456Z,7.28
2023-07-25T09:34:58.890Z,7.20
2023-07-25T09:38:01.386Z,6.10
2023-07-25T09:41:05.220Z,6.20
2023-07-25T09:44:07.753Z,6.70
2023-07-25T09:47:10.282Z,6.38
2023-07-25T09:50:12.787Z,9.13
2023-07-25T09:53:17.621Z,6.70
2023-07-25T09:56:25.130Z,7.50
2023-07-25T09:59:27.770Z,6.07
2023-07-25T10:02:30.485Z,6.93
2023-07-25T10:05:32.956Z,6.27
2023-07-25T10:08:35.979Z,6.73
2023-07-25T10:11:38.623Z,5.40
2023-07-25T10:14:41.611Z,5.85
2023-07-25T10:17:44.188Z,5.38
2023-07-25T10:20:46.810Z,5.83
2023-07-25T10:23:54.476Z,5.50
2023-07-25T10:26:58.554Z,4.97
2023-07-25T10:30:04.653Z,5.45
2023-07-25T10:33:08.435Z,4.68
2023-07-25T10:36:23.455Z,4.97
2023-07-25T10:39:27.092Z,5.20
2023-07-25T10:42:51.854Z,4.60
2023-07-25T10:46:02.897Z,4.90
2023-07-25T10:49:17.654Z,5.20
2023-07-25T10:52:43.265Z,4.60
2023-07-25T10:56:07.835Z,8.40
2023-07-25T10:59:14.574Z,6.68
2023-07-25T11:02:32.265Z,5.78
2023-07-25T11:05:34.888Z,4.60
2023-07-25T11:08:42.126Z,3.80
2023-07-25T11:11:49.433Z,4.47
2023-07-25T11:14:51.915Z,4.32
2023-07-25T11:17:55.298Z,3.88
2023-07-25T11:21:01.527Z,4.40
2023-07-25T11:24:05.333Z,4.70
2023-07-25T11:27:07.871Z,4.03
2023-07-25T11:30:17.867Z,5.00
2023-07-25T11:33:21.222Z,4.82
2023-07-25T11:36:23.789Z,4.18
2023-07-25T11:39:26.281Z,4.67
2023-07-25T11:42:29.404Z,4.63
2023-07-25T11:45:31.940Z,5.00
2023-07-25T11:48:34.628Z,5.75
2023-07-25T11:51:38.318Z,5.55
2023-07-25T11:54:40.973Z,5.07
2023-07-25T11:57:43.622Z,5.33
2023-07-25T12:00:52.534Z,4.78
2023-07-25T12:03:55.101Z,4.85
2023-07-25T12:07:00.430Z,5.68
2023-07-25T12:10:02.956Z,5.40
2023-07-25T12:13:09.768Z,5.50
2023-07-25T12:16:34.407Z,5.30
2023-07-25T12:19:37.101Z,4.80
2023-07-25T12:22:39.723Z,5.22
2023-07-25T12:25:42.479Z,5.20
2023-07-25T12:28:46.099Z,5.07
2023-07-25T12:31:49.335Z,5.03
2023-07-25T12:34:51.975Z,4.85
2023-07-25T12:37:54.503Z,5.25
2023-07-25T12:40:57.087Z,5.17
2023-07-25T12:44:00.436Z,5.20
2023-07-25T12:47:03.292Z,5.45
2023-07-25T12:50:06.292Z,5.00
2023-07-25T12:53:09.465Z,5.05
2023-07-25T12:56:11.923Z,5.03
2023-07-25T12:59:14.363Z,5.67
2023-07-25T13:02:17.443Z,5.28
2023-07-25T13:05:21.312Z,5.15
2023-07-25T13:08:24.626Z,5.15
2023-07-25T13:11:27.150Z,4.60
2023-07-25T13:14:29.757Z,5.90
2023-07-25T13:17:33.465Z,5.68
2023-07-25T13:20:35.964Z,5.40
2023-07-25T13:23:38.456Z,4.53
2023-07-25T13:26:40.927Z,4.53
2023-07-25T13:29:43.488Z,4.80
2023-07-25T13:32:46.027Z,4.00
2023-07-25T13:35:48.491Z,4.18
2023-07-25T13:38:50.948Z,4.63
2023-07-25T13:41:53.508Z,4.60
2023-07-25T13:44:57.117Z,4.63
2023-07-25T13:47:59.702Z,4.22
2023-07-25T13:51:02.237Z,3.72
2023-07-25T13:54:05.073Z,4.80
2023-07-25T13:57:10.539Z,3.77
2023-07-25T14:00:13.721Z,3.70
2023-07-25T14:03:16.341Z,3.40
2023-07-25T14:06:18.879Z,3.05
2023-07-25T14:09:21.333Z,3.45
2023-07-25T14:12:23.807Z,3.77
2023-07-25T14:15:26.310Z,3.80
2023-07-25T14:18:28.799Z,3.28
2023-07-25T14:21:31.452Z,3.38
2023-07-25T14:24:34.264Z,3.78
2023-07-25T14:27:36.797Z,3.83
2023-07-25T14:30:39.294Z,3.87
2023-07-25T14:33:41.839Z,4.07
2023-07-25T14:36:44.355Z,4.25
2023-07-25T14:39:46.779Z,7.35
2023-07-25T14:42:49.389Z,4.20
2023-07-25T14:45:51.965Z,3.33
2023-07-25T14:48:54.452Z,3.38
2023-07-25T14:51:57.092Z,3.60
2023-07-25T14:54:59.558Z,3.30
2023-07-25T14:58:02.127Z,3.33
2023-07-25T15:01:04.636Z,2.93
2023-07-25T15:04:07.350Z,3.03
2023-07-25T15:07:09.780Z,2.97
2023-07-25T15:10:12.448Z,3.45
2023-07-25T15:13:14.966Z,3.10
2023-07-25T15:16:17.495Z,3.27
2023-07-25T15:19:20.101Z,2.65
2023-07-25T15:22:22.696Z,3.00
2023-07-25T15:25:26.348Z,3.15
2023-07-25T15:28:30.186Z,2.77
2023-07-25T15:31:33.041Z,3.03
2023-07-25T15:34:35.873Z,3.58
2023-07-25T15:37:39.018Z,3.38
2023-07-25T15:40:41.851Z,3.75
2023-07-25T15:43:44.315Z,3.13
2023-07-25T15:46:46.940Z,3.10
2023-07-25T15:49:49.432Z,2.80
2023-07-25T15:52:51.919Z,2.58
2023-07-25T15:55:54.782Z,3.38
2023-07-25T15:58:57.295Z,3.30
2023-07-25T16:01:59.832Z,3.13
2023-07-25T16:05:02.690Z,3.28
2023-07-25T16:08:05.515Z,2.47
2023-07-25T16:11:08.035Z,3.08
2023-07-25T16:14:10.516Z,2.70
2023-07-25T16:17:13.027Z,3.07
2023-07-25T16:20:15.656Z,2.80
2023-07-25T16:23:18.131Z,3.15
2023-07-25T16:26:21.775Z,2.58
2023-07-25T16:29:24.796Z,2.53
2023-07-25T16:32:29.299Z,2.80
2023-07-25T16:35:31.901Z,3.13
2023-07-25T16:38:35.491Z,2.97
2023-07-25T16:41:37.995Z,3.08
2023-07-25T16:44:40.581Z,2.87
2023-07-25T16:47:43.181Z,3.10
2023-07-25T16:50:45.753Z,3.17
2023-07-25T16:53:48.212Z,3.22
2023-07-25T16:56:50.737Z,3.63
2023-07-25T16:59:53.314Z,3.67
2023-07-25T17:02:55.921Z,2.70
2023-07-25T17:05:58.649Z,3.42
2023-07-25T17:09:01.581Z,3.33
2023-07-25T17:12:04.730Z,3.53
2023-07-25T17:15:07.955Z,3.17
2023-07-25T17:18:10.594Z,3.87
2023-07-25T17:21:16.326Z,3.13
2023-07-25T17:24:20.865Z,3.42
2023-07-25T17:27:24.617Z,3.63
2023-07-25T17:30:27.097Z,3.47
2023-07-25T17:33:29.654Z,3.07
2023-07-25T17:36:32.189Z,3.10
2023-07-25T17:39:34.712Z,3.70
2023-07-25T17:42:37.182Z,3.65
2023-07-25T17:45:39.608Z,3.17
2023-07-25T17:48:42.135Z,3.80
2023-07-25T17:51:44.671Z,3.90
2023-07-25T17:54:47.342Z,3.85
2023-07-25T17:57:49.821Z,3.40
2023-07-25T18:00:52.446Z,3.53
2023-07-25T18:03:55.012Z,4.17
2023-07-25T18:06:57.538Z,4.32
2023-07-25T18:10:00.105Z,3.55
2023-07-25T18:13:02.630Z,3.70
2023-07-25T18:16:05.434Z,4.17
2023-07-25T18:19:08.001Z,4.13
2023-07-25T18:22:10.534Z,3.78
2023-07-25T18:25:13.195Z,3.42
2023-07-25T18:28:16.211Z,4.00
2023-07-25T18:31:18.682Z,3.33
2023-07-25T18:34:21.254Z,3.20
2023-07-25T18:37:23.781Z,3.03
2023-07-25T18:40:26.906Z,3.53
2023-07-25T18:43:29.675Z,3.30
2023-07-25T18:46:32.656Z,3.03
2023-07-25T18:49:35.420Z,3.17
2023-07-25T18:52:38.020Z,2.83
2023-07-25T18:55:41.868Z,3.78
2023-07-25T18:58:44.452Z,3.45
2023-07-25T19:01:47.121Z,3.57
2023-07-25T19:04:49.592Z,3.10
2023-07-25T19:07:52.075Z,2.70
2023-07-25T19:10:54.757Z,3.67
2023-07-25T19:13:57.269Z,3.42
2023-07-25T19:17:02.410Z,3.87
2023-07-25T19:20:06.785Z,3.57
2023-07-25T19:23:23.590Z,3.60
2023-07-25T19:26:28.381Z,3.90
2023-07-25T19:29:31.263Z,3.78
2023-07-25T19:32:33.975Z,3.93
2023-07-25T19:35:36.481Z,4.10
2023-07-25T19:38:40.588Z,3.65
2023-07-25T19:41:43.245Z,4.10
2023-07-25T19:44:46.714Z,3.63
2023-07-25T19:47:49.326Z,4.50
2023-07-25T19:50:51.889Z,3.80
2023-07-25T19:53:54.397Z,3.50
2023-07-25T19:56:56.889Z,3.60
2023-07-25T19:59:59.452Z,3.50
2023-07-25T20:03:02.088Z,3.90
2023-07-25T20:06:06.851Z,4.43
2023-07-25T20:09:09.408Z,4.03
2023-07-25T20:12:11.859Z,4.25
2023-07-25T20:15:15.381Z,4.45
2023-07-25T20:18:18.615Z,4.20
2023-07-25T20:21:22.534Z,4.57
2023-07-25T20:24:25.029Z,4.53
2023-07-25T20:27:27.584Z,4.00
2023-07-25T20:30:30.112Z,4.10
2023-07-25T20:33:33.907Z,4.73
2023-07-25T20:36:36.724Z,4.50
2023-07-25T20:39:39.197Z,4.60
2023-07-25T20:42:41.697Z,4.53
2023-07-25T20:45:44.163Z,4.78
2023-07-25T20:48:46.677Z,4.90
2023-07-25T20:51:49.223Z,5.33
2023-07-25T20:54:51.739Z,4.90
2023-07-25T20:57:54.612Z,4.95
2023-07-25T21:00:57.114Z,5.30
2023-07-25T21:03:59.576Z,4.57
2023-07-25T21:07:02.071Z,4.40
2023-07-25T21:10:04.847Z,4.75
2023-07-25T21:13:07.331Z,4.72
2023-07-25T21:16:09.802Z,5.15
2023-07-25T21:19:12.260Z,5.00
2023-07-25T21:22:14.720Z,5.00
2023-07-25T21:25:17.202Z,5.28
2023-07-25T21:28:20.132Z,4.78
2023-07-25T21:31:22.656Z,5.10
2023-07-25T21:34:25.295Z,5.07
2023-07-25T21:37:27.809Z,4.73
2023-07-25T21:40:30.240Z,5.22
2023-07-25T21:43:33.039Z,5.43
2023-07-25T21:46:37.323Z,5.63
2023-07-25T21:49:41.588Z,5.37
2023-07-25T21:52:44.088Z,5.63
2023-07-25T21:55:46.597Z,5.55
2023-07-25T21:58:49.141Z,4.35
2023-07-25T22:01:52.901Z,5.65
2023-07-25T22:04:55.595Z,5.03
2023-07-25T22:07:58.143Z,5.93
2023-07-25T22:11:00.651Z,6.35
2023-07-25T22:14:03.145Z,6.82
2023-07-25T22:17:06.228Z,6.47
2023-07-25T22:20:09.407Z,6.37
2023-07-25T22:23:11.943Z,6.10
2023-07-25T22:26:14.397Z,5.50
2023-07-25T22:29:17.115Z,6.30
2023-07-25T22:32:19.611Z,5.68
2023-07-25T22:35:22.225Z,5.90
2023-07-25T22:38:24.654Z,6.60
2023-07-25T22:41:27.146Z,6.32
2023-07-25T22:44:29.741Z,5.80
2023-07-25T22:47:32.263Z,6.50
2023-07-25T22:50:34.751Z,5.67
2023-07-25T22:53:37.238Z,5.60
2023-07-25T22:56:39.718Z,6.30
2023-07-25T22:59:42.181Z,5.00
2023-07-25T23:02:45.041Z,5.55
2023-07-25T23:05:50.659Z,5.13
2023-07-25T23:08:53.181Z,5.07
2023-07-25T23:11:55.717Z,5.82
2023-07-25T23:14:58.285Z,4.97
2023-07-25T23:18:00.827Z,4.90
2023-07-25T23:21:03.474Z,4.60
2023-07-25T23:24:06.176Z,4.87
2023-07-25T23:27:08.701Z,5.10
2023-07-25T23:30:12.979Z,4.57
2023-07-25T23:33:15.566Z,4.40
2023-07-25T23:36:18.041Z,5.03
2023-07-25T23:39:20.489Z,5.53
2023-07-25T23:42:23.120Z,4.35
2023-07-25T23:45:25.602Z,5.00
2023-07-25T23:48:28.038Z,4.65
2023-07-25T23:51:30.524Z,4.90
2023-07-25T23:54:33.170Z,4.20
2023-07-25T23:57:35.766Z,3.50
